CYYZ

Lester B Pearson International Airport

Toronto, , Canada
METAR CYYZ 131000Z 09003KT 5SM BR OVC009 00/M01 A3008 RMK SC8 SLP193
Observed Flight Rules
Dec-13 @ 10:00 UTC (51 minutes ago) Instrument Flight Rules
Wind Visibility Clouds Conditions
90° at 3 knots 5 miles
  • Overcast at 900' AGL
  • Mist
Temperatures Readings
Current 0°C / 32°F
Dewpoint -1°C / 30°F
Humidity 93%
Altimeter 30.08" Hg
Pressure 1019.3 hPa
Elevation 173
METAR CYYZ 131000Z 09003KT 5SM BR OVC009 00/M01 A3008 RMK SC8 SLP193
Observed Flight Rules
Dec-13 @ 10:00 UTC
(51 minutes ago)
IFR
Wind Visibility
90° at 3 knots 5 miles
Clouds
  • Overcast at 900' AGL
Conditions
  • Mist
Temperature Dewpoint
0°C / 32°F -1°C / 30°F
Humidity Altimeter Pressure
93% 30.08" Hg 1019.3 hPa